sensor_id;sensor_type;location;lat;lon;timestamp;pressure;altitude;pressure_sealevel;temperature;humidity
71107;BME280;58763;47.982;11.516;2023-04-01T00:00:55;93034.00;;;5.47;86.21
71107;BME280;58763;47.982;11.516;2023-04-01T00:03:22;93016.91;;;5.43;86.74
71107;BME280;58763;47.982;11.516;2023-04-01T00:05:48;93010.44;;;5.44;86.94
71107;BME280;58763;47.982;11.516;2023-04-01T00:08:14;93007.22;;;5.47;86.77
71107;BME280;58763;47.982;11.516;2023-04-01T00:10:40;92997.75;;;5.54;85.79
71107;BME280;58763;47.982;11.516;2023-04-01T00:13:06;92993.50;;;5.48;85.94
71107;BME280;58763;47.982;11.516;2023-04-01T00:15:32;92992.47;;;5.44;86.77
71107;BME280;58763;47.982;11.516;2023-04-01T00:17:58;92993.84;;;5.42;87.43
71107;BME280;58763;47.982;11.516;2023-04-01T00:20:24;92983.88;;;5.47;88.16
71107;BME280;58763;47.982;11.516;2023-04-01T00:22:49;92975.84;;;5.47;87.38
71107;BME280;58763;47.982;11.516;2023-04-01T00:25:15;92963.47;;;5.51;86.81
71107;BME280;58763;47.982;11.516;2023-04-01T00:27:41;92971.50;;;5.51;86.62
71107;BME280;58763;47.982;11.516;2023-04-01T00:30:08;92970.47;;;5.47;86.62
71107;BME280;58763;47.982;11.516;2023-04-01T00:32:34;92977.25;;;5.40;86.92
71107;BME280;58763;47.982;11.516;2023-04-01T00:35:00;92958.94;;;5.47;86.11
71107;BME280;58763;47.982;11.516;2023-04-01T00:37:26;92953.25;;;5.53;86.85
71107;BME280;58763;47.982;11.516;2023-04-01T00:39:52;92963.19;;;5.53;86.33
71107;BME280;58763;47.982;11.516;2023-04-01T00:42:18;92955.16;;;5.53;85.58
71107;BME280;58763;47.982;11.516;2023-04-01T00:44:51;92965.03;;;5.57;85.85
71107;BME280;58763;47.982;11.516;2023-04-01T00:47:17;92959.66;;;5.57;85.55
71107;BME280;58763;47.982;11.516;2023-04-01T00:49:46;92968.44;;;5.63;85.30
71107;BME280;58763;47.982;11.516;2023-04-01T00:52:15;92973.34;;;5.56;85.13
71107;BME280;58763;47.982;11.516;2023-04-01T00:54:46;92973.78;;;5.63;84.83
71107;BME280;58763;47.982;11.516;2023-04-01T00:57:23;92970.50;;;5.71;85.04
71107;BME280;58763;47.982;11.516;2023-04-01T00:59:52;92976.94;;;5.70;84.72
71107;BME280;58763;47.982;11.516;2023-04-01T01:02:19;92973.28;;;5.61;83.95
71107;BME280;58763;47.982;11.516;2023-04-01T01:04:45;92967.41;;;5.59;84.33
71107;BME280;58763;47.982;11.516;2023-04-01T01:09:42;92970.50;;;5.71;83.67
71107;BME280;58763;47.982;11.516;2023-04-01T01:12:21;92965.66;;;5.73;83.37
71107;BME280;58763;47.982;11.516;2023-04-01T01:14:54;92965.41;;;5.70;82.87
71107;BME280;58763;47.982;11.516;2023-04-01T01:28:47;92952.94;;;5.60;83.10
71107;BME280;58763;47.982;11.516;2023-04-01T01:31:20;92957.44;;;5.65;82.74
71107;BME280;58763;47.982;11.516;2023-04-01T01:36:21;92942.41;;;5.64;83.58
71107;BME280;58763;47.982;11.516;2023-04-01T01:38:50;92951.78;;;5.66;83.43
71107;BME280;58763;47.982;11.516;2023-04-01T01:41:17;92945.84;;;5.69;83.26
71107;BME280;58763;47.982;11.516;2023-04-01T01:43:46;92949.09;;;5.66;82.98
71107;BME280;58763;47.982;11.516;2023-04-01T01:46:19;92945.41;;;5.62;82.95
71107;BME280;58763;47.982;11.516;2023-04-01T01:48:47;92947.56;;;5.60;83.17
71107;BME280;58763;47.982;11.516;2023-04-01T01:51:14;92952.69;;;5.56;83.94
71107;BME280;58763;47.982;11.516;2023-04-01T01:53:39;92951.88;;;5.56;83.00
71107;BME280;58763;47.982;11.516;2023-04-01T01:56:05;92954.22;;;5.63;82.36
71107;BME280;58763;47.982;11.516;2023-04-01T02:01:02;92956.13;;;5.62;82.82
71107;BME280;58763;47.982;11.516;2023-04-01T02:03:33;92963.56;;;5.65;82.39
71107;BME280;58763;47.982;11.516;2023-04-01T02:06:03;92959.66;;;5.57;82.26
71107;BME280;58763;47.982;11.516;2023-04-01T02:08:53;92959.13;;;5.55;82.33
71107;BME280;58763;47.982;11.516;2023-04-01T02:11:42;92972.25;;;5.57;81.64
71107;BME280;58763;47.982;11.516;2023-04-01T02:14:20;92960.97;;;5.60;81.47
71107;BME280;58763;47.982;11.516;2023-04-01T02:17:02;92965.75;;;5.63;80.82
71107;BME280;58763;47.982;11.516;2023-04-01T02:19:34;92972.94;;;5.68;80.95
71107;BME280;58763;47.982;11.516;2023-04-01T02:22:04;92977.28;;;5.64;80.86
71107;BME280;58763;47.982;11.516;2023-04-01T02:24:33;92969.03;;;5.60;80.60
71107;BME280;58763;47.982;11.516;2023-04-01T02:27:00;92978.66;;;5.61;80.38
71107;BME280;58763;47.982;11.516;2023-04-01T02:29:26;92972.22;;;5.62;80.23
71107;BME280;58763;47.982;11.516;2023-04-01T02:31:53;92970.31;;;5.63;80.37
71107;BME280;58763;47.982;11.516;2023-04-01T02:34:21;92971.34;;;5.67;80.13
71107;BME280;58763;47.982;11.516;2023-04-01T02:36:48;92990.13;;;5.67;80.36
71107;BME280;58763;47.982;11.516;2023-04-01T02:39:15;92986.34;;;5.68;79.70
71107;BME280;58763;47.982;11.516;2023-04-01T02:41:42;92992.56;;;5.63;80.78
71107;BME280;58763;47.982;11.516;2023-04-01T02:44:09;92986.69;;;5.61;80.78
71107;BME280;58763;47.982;11.516;2023-04-01T02:46:35;92993.41;;;5.58;80.54
71107;BME280;58763;47.982;11.516;2023-04-01T02:49:02;92992.63;;;5.58;80.90
71107;BME280;58763;47.982;11.516;2023-04-01T02:51:27;92984.56;;;5.58;81.01
71107;BME280;58763;47.982;11.516;2023-04-01T02:53:53;92987.78;;;5.60;80.51
71107;BME280;58763;47.982;11.516;2023-04-01T02:56:18;92983.84;;;5.52;81.00
71107;BME280;58763;47.982;11.516;2023-04-01T02:58:45;92982.69;;;5.58;80.84
71107;BME280;58763;47.982;11.516;2023-04-01T03:01:11;92982.47;;;5.55;80.76
71107;BME280;58763;47.982;11.516;2023-04-01T03:03:37;92987.25;;;5.58;80.38
71107;BME280;58763;47.982;11.516;2023-04-01T03:06:08;92989.41;;;5.56;81.01
71107;BME280;58763;47.982;11.516;2023-04-01T03:08:34;92982.00;;;5.48;80.38
71107;BME280;58763;47.982;11.516;2023-04-01T03:10:59;92986.31;;;5.44;81.01
71107;BME280;58763;47.982;11.516;2023-04-01T03:13:25;92987.16;;;5.39;81.20
71107;BME280;58763;47.982;11.516;2023-04-01T03:15:51;92982.63;;;5.40;81.50
71107;BME280;58763;47.982;11.516;2023-04-01T03:18:17;92981.03;;;5.39;81.22
71107;BME280;58763;47.982;11.516;2023-04-01T03:20:43;92978.56;;;5.42;81.02
71107;BME280;58763;47.982;11.516;2023-04-01T03:23:08;92980.50;;;5.37;80.78
71107;BME280;58763;47.982;11.516;2023-04-01T03:25:34;92990.69;;;5.35;81.24
71107;BME280;58763;47.982;11.516;2023-04-01T03:28:00;92978.13;;;5.30;81.53
71107;BME280;58763;47.982;11.516;2023-04-01T03:30:26;92982.78;;;5.25;81.59
71107;BME280;58763;47.982;11.516;2023-04-01T03:32:52;92980.88;;;5.25;81.29
71107;BME280;58763;47.982;11.516;2023-04-01T03:35:18;92990.34;;;5.18;81.41
71107;BME280;58763;47.982;11.516;2023-04-01T03:37:44;92999.22;;;5.13;82.38
71107;BME280;58763;47.982;11.516;2023-04-01T03:40:10;92983.41;;;5.12;82.20
71107;BME280;58763;47.982;11.516;2023-04-01T03:42:35;92990.06;;;5.14;82.30
71107;BME280;58763;47.982;11.516;2023-04-01T03:45:02;92993.41;;;5.01;82.74
71107;BME280;58763;47.982;11.516;2023-04-01T03:47:28;92997.16;;;5.00;83.16
71107;BME280;58763;47.982;11.516;2023-04-01T03:49:54;92989.91;;;5.06;82.64
71107;BME280;58763;47.982;11.516;2023-04-01T03:52:20;92996.84;;;5.07;82.81
71107;BME280;58763;47.982;11.516;2023-04-01T03:54:46;92999.56;;;5.02;82.89
71107;BME280;58763;47.982;11.516;2023-04-01T03:57:11;92995.25;;;5.06;82.52
71107;BME280;58763;47.982;11.516;2023-04-01T03:59:37;93000.34;;;5.02;82.82
71107;BME280;58763;47.982;11.516;2023-04-01T04:02:03;93001.44;;;5.01;82.93
71107;BME280;58763;47.982;11.516;2023-04-01T04:04:28;93001.19;;;4.98;83.06
71107;BME280;58763;47.982;11.516;2023-04-01T04:06:54;93001.72;;;5.00;82.66
71107;BME280;58763;47.982;11.516;2023-04-01T04:09:20;92996.94;;;4.97;83.61
71107;BME280;58763;47.982;11.516;2023-04-01T04:11:48;92996.94;;;4.97;83.33
71107;BME280;58763;47.982;11.516;2023-04-01T04:14:13;93001.69;;;5.05;82.87
71107;BME280;58763;47.982;11.516;2023-04-01T04:16:39;93000.59;;;5.06;83.10
71107;BME280;58763;47.982;11.516;2023-04-01T04:19:05;92999.28;;;5.03;82.98
71107;BME280;58763;47.982;11.516;2023-04-01T04:21:31;92999.25;;;5.08;83.07
71107;BME280;58763;47.982;11.516;2023-04-01T04:23:57;92990.38;;;5.13;82.72
71107;BME280;58763;47.982;11.516;2023-04-01T04:26:23;93011.47;;;5.19;82.12
71107;BME280;58763;47.982;11.516;2023-04-01T04:28:49;93007.16;;;5.23;81.83
71107;BME280;58763;47.982;11.516;2023-04-01T04:31:19;93007.41;;;5.27;82.01
71107;BME280;58763;47.982;11.516;2023-04-01T04:33:45;93005.78;;;5.26;81.45
71107;BME280;58763;47.982;11.516;2023-04-01T04:36:11;93008.47;;;5.26;80.93
71107;BME280;58763;47.982;11.516;2023-04-01T04:38:36;93016.25;;;5.27;81.63
71107;BME280;58763;47.982;11.516;2023-04-01T04:41:02;93010.59;;;5.29;80.95
71107;BME280;58763;47.982;11.516;2023-04-01T04:43:28;93016.97;;;5.33;81.57
71107;BME280;58763;47.982;11.516;2023-04-01T04:45:53;93011.06;;;5.36;81.40
71107;BME280;58763;47.982;11.516;2023-04-01T04:48:19;93016.94;;;5.38;80.62
71107;BME280;58763;47.982;11.516;2023-04-01T04:50:49;93020.19;;;5.35;80.88
71107;BME280;58763;47.982;11.516;2023-04-01T04:53:17;93014.84;;;5.30;80.78
71107;BME280;58763;47.982;11.516;2023-04-01T04:55:45;93011.91;;;5.31;80.53
71107;BME280;58763;47.982;11.516;2023-04-01T04:58:11;93014.03;;;5.34;80.45
71107;BME280;58763;47.982;11.516;2023-04-01T05:00:36;93024.50;;;5.31;80.53
71107;BME280;58763;47.982;11.516;2023-04-01T05:03:02;93027.66;;;5.38;79.73
71107;BME280;58763;47.982;11.516;2023-04-01T05:05:28;93028.47;;;5.38;79.32
71107;BME280;58763;47.982;11.516;2023-04-01T05:07:54;93026.84;;;5.37;79.56
71107;BME280;58763;47.982;11.516;2023-04-01T05:10:19;93033.53;;;5.40;79.39
71107;BME280;58763;47.982;11.516;2023-04-01T05:12:46;93038.91;;;5.40;79.70
71107;BME280;58763;47.982;11.516;2023-04-01T05:15:11;93025.47;;;5.45;78.71
71107;BME280;58763;47.982;11.516;2023-04-01T05:17:37;93029.47;;;5.47;78.18
71107;BME280;58763;47.982;11.516;2023-04-01T05:20:03;93030.28;;;5.48;78.33
71107;BME280;58763;47.982;11.516;2023-04-01T05:22:29;93022.75;;;5.50;77.77
71107;BME280;58763;47.982;11.516;2023-04-01T05:24:55;93040.16;;;5.52;78.09
71107;BME280;58763;47.982;11.516;2023-04-01T05:27:20;93029.63;;;5.56;77.83
71107;BME280;58763;47.982;11.516;2023-04-01T05:29:46;93031.25;;;5.57;77.41
71107;BME280;58763;47.982;11.516;2023-04-01T05:32:11;93031.75;;;5.59;77.53
71107;BME280;58763;47.982;11.516;2023-04-01T05:34:37;93034.75;;;5.57;77.31
71107;BME280;58763;47.982;11.516;2023-04-01T05:37:02;93032.78;;;5.63;77.17
71107;BME280;58763;47.982;11.516;2023-04-01T05:39:28;93030.63;;;5.65;77.14
71107;BME280;58763;47.982;11.516;2023-04-01T05:41:54;93038.19;;;5.58;77.28
71107;BME280;58763;47.982;11.516;2023-04-01T05:44:20;93043.50;;;5.63;76.86
71107;BME280;58763;47.982;11.516;2023-04-01T05:46:46;93039.25;;;5.62;77.69
71107;BME280;58763;47.982;11.516;2023-04-01T05:49:12;93038.75;;;5.60;77.53
71107;BME280;58763;47.982;11.516;2023-04-01T05:51:37;93038.63;;;5.70;77.06
71107;BME280;58763;47.982;11.516;2023-04-01T05:54:05;93043.50;;;5.63;77.66
71107;BME280;58763;47.982;11.516;2023-04-01T05:56:31;93039.25;;;5.62;77.48
71107;BME280;58763;47.982;11.516;2023-04-01T05:58:56;93042.50;;;5.59;77.36
71107;BME280;58763;47.982;11.516;2023-04-01T06:01:22;93027.94;;;5.65;77.67
71107;BME280;58763;47.982;11.516;2023-04-01T06:03:47;93030.06;;;5.68;77.20
71107;BME280;58763;47.982;11.516;2023-04-01T06:06:16;93035.69;;;5.72;76.46
71107;BME280;58763;47.982;11.516;2023-04-01T06:08:43;93032.41;;;5.75;75.55
71107;BME280;58763;47.982;11.516;2023-04-01T06:11:40;93031.56;;;5.79;76.17
71107;BME280;58763;47.982;11.516;2023-04-01T06:14:24;93030.97;;;5.87;75.85
71107;BME280;58763;47.982;11.516;2023-04-01T06:19:57;93034.13;;;5.94;74.88
71107;BME280;58763;47.982;11.516;2023-04-01T06:25:13;93041.31;;;5.99;75.54
71107;BME280;58763;47.982;11.516;2023-04-01T06:39:08;93025.78;;;6.19;72.78
71107;BME280;58763;47.982;11.516;2023-04-01T06:44:07;93041.94;;;6.14;73.45
71107;BME280;58763;47.982;11.516;2023-04-01T06:54:36;93021.19;;;6.44;73.11
71107;BME280;58763;47.982;11.516;2023-04-01T06:57:39;93020.84;;;6.50;72.64
71107;BME280;58763;47.982;11.516;2023-04-01T07:03:13;93038.66;;;6.65;71.17
71107;BME280;58763;47.982;11.516;2023-04-01T07:05:42;93032.91;;;6.71;71.44
71107;BME280;58763;47.982;11.516;2023-04-01T07:08:35;93044.78;;;6.65;70.84
71107;BME280;58763;47.982;11.516;2023-04-01T07:11:06;93046.97;;;6.63;72.02
71107;BME280;58763;47.982;11.516;2023-04-01T07:13:41;93030.59;;;6.65;71.65
71107;BME280;58763;47.982;11.516;2023-04-01T07:16:18;93044.94;;;6.55;71.38
71107;BME280;58763;47.982;11.516;2023-04-01T07:19:05;93052.84;;;6.65;72.07
71107;BME280;58763;47.982;11.516;2023-04-01T07:21:51;93055.41;;;6.75;71.69
71107;BME280;58763;47.982;11.516;2023-04-01T07:24:25;93044.09;;;6.78;70.94
71107;BME280;58763;47.982;11.516;2023-04-01T07:26:55;93048.38;;;6.79;71.34
71107;BME280;58763;47.982;11.516;2023-04-01T07:29:22;93046.41;;;6.85;70.93
71107;BME280;58763;47.982;11.516;2023-04-01T07:34:26;93050.06;;;7.13;70.92
71107;BME280;58763;47.982;11.516;2023-04-01T07:37:10;93039.31;;;7.13;70.53
71107;BME280;58763;47.982;11.516;2023-04-01T07:39:48;93050.47;;;7.20;70.07
71107;BME280;58763;47.982;11.516;2023-04-01T07:47:46;93027.09;;;7.20;68.59
71107;BME280;58763;47.982;11.516;2023-04-01T07:55:30;93043.03;;;7.49;68.87
71107;BME280;58763;47.982;11.516;2023-04-01T08:00:58;93039.63;;;7.43;69.18
71107;BME280;58763;47.982;11.516;2023-04-01T08:03:31;93038.50;;;7.63;68.55
71107;BME280;58763;47.982;11.516;2023-04-01T08:05:59;93041.31;;;7.72;68.91
71107;BME280;58763;47.982;11.516;2023-04-01T08:11:55;93052.66;;;7.68;66.69
71107;BME280;58763;47.982;11.516;2023-04-01T08:14:27;93046.78;;;7.66;67.93
71107;BME280;58763;47.982;11.516;2023-04-01T08:22:43;93028.88;;;7.89;66.19
71107;BME280;58763;47.982;11.516;2023-04-01T08:25:18;93025.81;;;7.96;65.62
71107;BME280;58763;47.982;11.516;2023-04-01T08:27:51;93036.09;;;8.07;64.52
71107;BME280;58763;47.982;11.516;2023-04-01T08:30:39;93036.88;;;8.21;64.58
71107;BME280;58763;47.982;11.516;2023-04-01T08:33:24;93038.44;;;8.27;64.28
71107;BME280;58763;47.982;11.516;2023-04-01T08:38:32;93033.13;;;8.77;64.02
71107;BME280;58763;47.982;11.516;2023-04-01T08:55:04;93034.34;;;9.07;63.30
71107;BME280;58763;47.982;11.516;2023-04-01T08:57:54;93031.38;;;8.94;61.43
71107;BME280;58763;47.982;11.516;2023-04-01T09:03:02;93029.50;;;9.31;62.62
71107;BME280;58763;47.982;11.516;2023-04-01T09:17:25;93032.72;;;9.41;59.57
71107;BME280;58763;47.982;11.516;2023-04-01T09:28:10;93023.91;;;9.49;58.88
71107;BME280;58763;47.982;11.516;2023-04-01T09:31:00;93034.06;;;9.52;56.96
71107;BME280;58763;47.982;11.516;2023-04-01T09:36:37;93029.19;;;9.54;57.12
71107;BME280;58763;47.982;11.516;2023-04-01T09:39:38;93004.59;;;9.56;57.81
71107;BME280;58763;47.982;11.516;2023-04-01T09:42:23;93004.03;;;9.67;56.38
71107;BME280;58763;47.982;11.516;2023-04-01T09:45:01;93007.25;;;9.78;58.18
71107;BME280;58763;47.982;11.516;2023-04-01T09:52:48;92991.81;;;9.70;57.30
71107;BME280;58763;47.982;11.516;2023-04-01T09:55:38;93001.38;;;9.76;58.33
71107;BME280;58763;47.982;11.516;2023-04-01T10:03:58;92998.59;;;9.90;57.21
71107;BME280;58763;47.982;11.516;2023-04-01T10:13:19;93005.44;;;9.65;57.01
71107;BME280;58763;47.982;11.516;2023-04-01T10:22:00;92993.97;;;9.59;56.56
71107;BME280;58763;47.982;11.516;2023-04-01T11:04:53;93025.94;;;9.22;60.79
71107;BME280;58763;47.982;11.516;2023-04-01T11:24:34;93022.19;;;8.95;63.71
71107;BME280;58763;47.982;11.516;2023-04-01T11:30:22;93015.84;;;8.78;62.03
71107;BME280;58763;47.982;11.516;2023-04-01T11:33:42;93019.34;;;8.78;63.02
71107;BME280;58763;47.982;11.516;2023-04-01T11:39:13;93034.13;;;8.67;64.44
71107;BME280;58763;47.982;11.516;2023-04-01T11:41:56;93030.66;;;8.53;65.63
71107;BME280;58763;47.982;11.516;2023-04-01T11:44:26;93029.75;;;8.44;66.62
71107;BME280;58763;47.982;11.516;2023-04-01T11:56:08;93062.53;;;7.73;71.75
71107;BME280;58763;47.982;11.516;2023-04-01T12:01:48;93066.53;;;7.76;72.40
71107;BME280;58763;47.982;11.516;2023-04-01T12:04:29;93065.94;;;7.79;72.28
71107;BME280;58763;47.982;11.516;2023-04-01T12:07:08;93067.84;;;7.78;71.64
71107;BME280;58763;47.982;11.516;2023-04-01T12:15:19;93061.03;;;7.67;71.35
71107;BME280;58763;47.982;11.516;2023-04-01T12:18:15;93072.78;;;7.71;71.50
71107;BME280;58763;47.982;11.516;2023-04-01T12:30:23;93066.72;;;7.47;74.30
71107;BME280;58763;47.982;11.516;2023-04-01T12:32:37;93079.53;;;7.36;74.24
71107;BME280;58763;47.982;11.516;2023-04-01T12:35:39;93067.59;;;7.42;74.11
71107;BME280;58763;47.982;11.516;2023-04-01T12:40:51;93055.53;;;7.40;74.25
71107;BME280;58763;47.982;11.516;2023-04-01T12:46:15;93056.78;;;7.47;74.89
71107;BME280;58763;47.982;11.516;2023-04-01T12:51:54;93062.50;;;7.59;73.22
71107;BME280;58763;47.982;11.516;2023-04-01T13:08:52;93068.38;;;7.61;72.96
71107;BME280;58763;47.982;11.516;2023-04-01T13:14:44;93061.59;;;7.64;73.74
71107;BME280;58763;47.982;11.516;2023-04-01T13:29:07;93068.44;;;7.56;71.42
71107;BME280;58763;47.982;11.516;2023-04-01T13:34:39;93085.47;;;7.52;73.83
71107;BME280;58763;47.982;11.516;2023-04-01T13:37:20;93079.81;;;7.53;72.97
71107;BME280;58763;47.982;11.516;2023-04-01T13:45:33;93093.31;;;7.67;74.73
71107;BME280;58763;47.982;11.516;2023-04-01T13:59:40;93076.91;;;7.50;74.99
71107;BME280;58763;47.982;11.516;2023-04-01T14:08:05;93080.69;;;7.49;76.36
71107;BME280;58763;47.982;11.516;2023-04-01T14:11:17;93079.25;;;7.38;75.76
71107;BME280;58763;47.982;11.516;2023-04-01T14:13:43;93079.03;;;7.34;76.45
71107;BME280;58763;47.982;11.516;2023-04-01T14:25:43;93089.66;;;7.44;77.01
71107;BME280;58763;47.982;11.516;2023-04-01T14:34:15;93092.03;;;7.46;77.01
71107;BME280;58763;47.982;11.516;2023-04-01T14:37:12;93094.94;;;7.49;77.41
71107;BME280;58763;47.982;11.516;2023-04-01T14:42:45;93102.78;;;7.46;77.19
71107;BME280;58763;47.982;11.516;2023-04-01T14:45:25;93097.63;;;7.49;76.73
71107;BME280;58763;47.982;11.516;2023-04-01T14:47:58;93110.00;;;7.50;78.28
71107;BME280;58763;47.982;11.516;2023-04-01T14:50:31;93105.25;;;7.42;77.58
71107;BME280;58763;47.982;11.516;2023-04-01T14:56:01;93110.13;;;7.40;78.93
71107;BME280;58763;47.982;11.516;2023-04-01T15:01:26;93113.84;;;7.44;78.86
71107;BME280;58763;47.982;11.516;2023-04-01T15:04:02;93104.09;;;7.48;79.00
71107;BME280;58763;47.982;11.516;2023-04-01T15:07:06;93098.94;;;7.52;78.42
71107;BME280;58763;47.982;11.516;2023-04-01T15:09:40;93082.53;;;7.35;76.59
71107;BME280;58763;47.982;11.516;2023-04-01T15:12:29;93088.19;;;7.33;78.68
71107;BME280;58763;47.982;11.516;2023-04-01T15:15:29;93090.16;;;7.46;75.84
71107;BME280;58763;47.982;11.516;2023-04-01T15:37:00;93114.59;;;7.82;73.74
71107;BME280;58763;47.982;11.516;2023-04-01T15:45:16;93108.88;;;7.70;73.88
71107;BME280;58763;47.982;11.516;2023-04-01T15:47:52;93102.47;;;7.66;72.17
71107;BME280;58763;47.982;11.516;2023-04-01T15:50:28;93104.34;;;7.65;73.33
71107;BME280;58763;47.982;11.516;2023-04-01T15:56:16;93124.22;;;7.70;73.41
71107;BME280;58763;47.982;11.516;2023-04-01T16:04:59;93123.41;;;7.69;74.51
71107;BME280;58763;47.982;11.516;2023-04-01T16:07:43;93123.03;;;7.76;74.96
71107;BME280;58763;47.982;11.516;2023-04-01T16:10:35;93125.22;;;7.74;75.23
71107;BME280;58763;47.982;11.516;2023-04-01T16:13:24;93132.88;;;7.66;76.50
71107;BME280;58763;47.982;11.516;2023-04-01T16:21:37;93131.00;;;7.48;77.01
71107;BME280;58763;47.982;11.516;2023-04-01T16:24:17;93127.50;;;7.48;75.04
71107;BME280;58763;47.982;11.516;2023-04-01T16:26:50;93138.19;;;7.34;76.04
71107;BME280;58763;47.982;11.516;2023-04-01T16:29:27;93128.44;;;7.38;76.35
71107;BME280;58763;47.982;11.516;2023-04-01T16:34:34;93144.81;;;7.23;75.55
71107;BME280;58763;47.982;11.516;2023-04-01T16:37:09;93141.31;;;7.23;74.29
71107;BME280;58763;47.982;11.516;2023-04-01T16:42:56;93135.13;;;7.22;73.91
71107;BME280;58763;47.982;11.516;2023-04-01T16:45:54;93138.69;;;7.18;72.51
71107;BME280;58763;47.982;11.516;2023-04-01T16:48:34;93138.25;;;7.11;72.25
71107;BME280;58763;47.982;11.516;2023-04-01T16:51:10;93139.78;;;7.17;71.75
71107;BME280;58763;47.982;11.516;2023-04-01T16:53:48;93137.88;;;7.17;71.08
71107;BME280;58763;47.982;11.516;2023-04-01T16:56:25;93140.31;;;7.19;71.07
71107;BME280;58763;47.982;11.516;2023-04-01T17:01:49;93150.19;;;7.23;71.11
71107;BME280;58763;47.982;11.516;2023-04-01T17:10:10;93152.00;;;7.09;70.48
71107;BME280;58763;47.982;11.516;2023-04-01T17:15:33;93153.50;;;7.15;70.18
71107;BME280;58763;47.982;11.516;2023-04-01T17:20:50;93168.56;;;7.16;70.32
71107;BME280;58763;47.982;11.516;2023-04-01T17:23:39;93160.56;;;7.11;71.28
71107;BME280;58763;47.982;11.516;2023-04-01T17:29:57;93168.03;;;7.14;71.63
71107;BME280;58763;47.982;11.516;2023-04-01T17:32:55;93174.72;;;7.17;70.64
71107;BME280;58763;47.982;11.516;2023-04-01T17:35:31;93168.56;;;7.16;70.75
71107;BME280;58763;47.982;11.516;2023-04-01T17:38:17;93178.50;;;7.16;71.38
71107;BME280;58763;47.982;11.516;2023-04-01T17:43:47;93174.50;;;7.13;69.79
71107;BME280;58763;47.982;11.516;2023-04-01T17:54:40;93186.53;;;7.21;70.86
71107;BME280;58763;47.982;11.516;2023-04-01T17:59:37;93187.03;;;7.23;71.70
71107;BME280;58763;47.982;11.516;2023-04-01T18:02:31;93194.13;;;7.14;72.06
71107;BME280;58763;47.982;11.516;2023-04-01T18:10:31;93205.97;;;7.13;72.94
71107;BME280;58763;47.982;11.516;2023-04-01T18:26:13;93212.97;;;6.90;74.93
71107;BME280;58763;47.982;11.516;2023-04-01T18:31:43;93216.97;;;6.92;74.76
71107;BME280;58763;47.982;11.516;2023-04-01T18:37:22;93224.69;;;6.99;74.62
71107;BME280;58763;47.982;11.516;2023-04-01T18:40:17;93223.06;;;6.98;74.63
71107;BME280;58763;47.982;11.516;2023-04-01T18:45:43;93238.78;;;7.10;74.67
71107;BME280;58763;47.982;11.516;2023-04-01T18:51:49;93233.59;;;7.18;74.24
71107;BME280;58763;47.982;11.516;2023-04-01T18:54:24;93239.94;;;7.04;74.46
71107;BME280;58763;47.982;11.516;2023-04-01T18:57:21;93241.81;;;7.03;75.17
71107;BME280;58763;47.982;11.516;2023-04-01T19:00:03;93246.63;;;7.06;74.72
71107;BME280;58763;47.982;11.516;2023-04-01T19:02:41;93242.94;;;7.02;74.83
71107;BME280;58763;47.982;11.516;2023-04-01T19:05:14;93252.72;;;6.93;74.59
71107;BME280;58763;47.982;11.516;2023-04-01T19:07:47;93258.00;;;6.98;74.96
71107;BME280;58763;47.982;11.516;2023-04-01T19:10:23;93263.69;;;6.96;74.39
71107;BME280;58763;47.982;11.516;2023-04-01T19:13:35;93249.69;;;7.00;74.35
71107;BME280;58763;47.982;11.516;2023-04-01T19:16:16;93248.16;;;6.88;74.42
71107;BME280;58763;47.982;11.516;2023-04-01T19:19:00;93251.59;;;6.94;74.31
71107;BME280;58763;47.982;11.516;2023-04-01T19:21:37;93250.69;;;6.80;74.39
71107;BME280;58763;47.982;11.516;2023-04-01T19:24:17;93257.16;;;6.79;74.73
71107;BME280;58763;47.982;11.516;2023-04-01T19:27:10;93263.00;;;6.86;74.34
71107;BME280;58763;47.982;11.516;2023-04-01T19:32:33;93258.78;;;6.75;74.59
71107;BME280;58763;47.982;11.516;2023-04-01T19:38:24;93258.56;;;6.71;74.38
71107;BME280;58763;47.982;11.516;2023-04-01T19:40:58;93268.22;;;6.72;74.50
71107;BME280;58763;47.982;11.516;2023-04-01T19:43:39;93254.09;;;6.62;74.44
71107;BME280;58763;47.982;11.516;2023-04-01T19:46:33;93258.91;;;6.65;74.22
71107;BME280;58763;47.982;11.516;2023-04-01T19:51:59;93265.41;;;6.59;74.35
71107;BME280;58763;47.982;11.516;2023-04-01T19:54:46;93268.38;;;6.57;74.78
71107;BME280;58763;47.982;11.516;2023-04-01T20:00:24;93275.88;;;6.60;74.25
71107;BME280;58763;47.982;11.516;2023-04-01T20:03:01;93283.69;;;6.57;74.41
71107;BME280;58763;47.982;11.516;2023-04-01T20:05:35;93276.13;;;6.59;74.55
71107;BME280;58763;47.982;11.516;2023-04-01T20:08:16;93282.13;;;6.51;74.86
71107;BME280;58763;47.982;11.516;2023-04-01T20:16:21;93284.53;;;6.52;74.52
71107;BME280;58763;47.982;11.516;2023-04-01T20:18:57;93294.19;;;6.53;74.17
71107;BME280;58763;47.982;11.516;2023-04-01T20:21:27;93293.47;;;6.43;75.08
71107;BME280;58763;47.982;11.516;2023-04-01T20:23:59;93294.31;;;6.38;74.88
71107;BME280;58763;47.982;11.516;2023-04-01T20:26:31;93291.34;;;6.40;74.93
71107;BME280;58763;47.982;11.516;2023-04-01T20:34:50;93302.47;;;6.57;74.88
71107;BME280;58763;47.982;11.516;2023-04-01T20:40:38;93295.22;;;6.57;74.79
71107;BME280;58763;47.982;11.516;2023-04-01T20:46:19;93280.72;;;6.58;74.39
71107;BME280;58763;47.982;11.516;2023-04-01T20:49:13;93287.19;;;6.57;74.08
71107;BME280;58763;47.982;11.516;2023-04-01T20:51:54;93283.63;;;6.62;74.06
71107;BME280;58763;47.982;11.516;2023-04-01T20:57:15;93289.34;;;6.55;74.02
71107;BME280;58763;47.982;11.516;2023-04-01T21:36:12;93317.69;;;6.38;74.49
71107;BME280;58763;47.982;11.516;2023-04-01T21:39:13;93313.03;;;6.48;74.43
71107;BME280;58763;47.982;11.516;2023-04-01T21:44:20;93327.97;;;6.59;73.82
71107;BME280;58763;47.982;11.516;2023-04-01T22:01:26;93340.22;;;6.42;74.37
71107;BME280;58763;47.982;11.516;2023-04-01T22:04:19;93342.84;;;6.47;74.30
71107;BME280;58763;47.982;11.516;2023-04-01T22:12:38;93345.81;;;6.45;73.92